sensor_id;sensor_type;location;lat;lon;timestamp;P1;durP1;ratioP1;P2;durP2;ratioP2
50851;SDS011;43953;45.508;-122.806;2023-02-15T00:00:18;2.33;;;1.30;;
50851;SDS011;43953;45.508;-122.806;2023-02-15T00:00:50;2.60;;;1.55;;
50851;SDS011;43953;45.508;-122.806;2023-02-15T00:01:25;3.10;;;1.38;;
50851;SDS011;43953;45.508;-122.806;2023-02-15T00:01:57;3.47;;;1.60;;
50851;SDS011;43953;45.508;-122.806;2023-02-15T00:02:29;3.90;;;1.40;;
50851;SDS011;43953;45.508;-122.806;2023-02-15T00:03:00;1.83;;;1.15;;
50851;SDS011;43953;45.508;-122.806;2023-02-15T00:03:32;2.70;;;1.10;;
50851;SDS011;43953;45.508;-122.806;2023-02-15T00:04:04;3.22;;;1.20;;
50851;SDS011;43953;45.508;-122.806;2023-02-15T00:04:37;2.85;;;1.30;;
50851;SDS011;43953;45.508;-122.806;2023-02-15T00:05:17;1.98;;;1.30;;
50851;SDS011;43953;45.508;-122.806;2023-02-15T00:05:49;1.83;;;1.00;;
50851;SDS011;43953;45.508;-122.806;2023-02-15T00:06:21;3.25;;;1.10;;
50851;SDS011;43953;45.508;-122.806;2023-02-15T00:06:53;1.77;;;1.10;;
50851;SDS011;43953;45.508;-122.806;2023-02-15T00:07:25;3.55;;;1.40;;
50851;SDS011;43953;45.508;-122.806;2023-02-15T00:07:57;3.78;;;1.30;;
50851;SDS011;43953;45.508;-122.806;2023-02-15T00:08:28;3.13;;;1.50;;
50851;SDS011;43953;45.508;-122.806;2023-02-15T00:09:00;2.22;;;1.25;;
50851;SDS011;43953;45.508;-122.806;2023-02-15T00:09:33;3.88;;;1.33;;
50851;SDS011;43953;45.508;-122.806;2023-02-15T00:10:05;3.15;;;1.38;;
50851;SDS011;43953;45.508;-122.806;2023-02-15T00:10:38;3.50;;;1.20;;
50851;SDS011;43953;45.508;-122.806;2023-02-15T00:11:10;2.63;;;1.38;;
50851;SDS011;43953;45.508;-122.806;2023-02-15T00:11:47;2.35;;;1.10;;
50851;SDS011;43953;45.508;-122.806;2023-02-15T00:12:21;1.50;;;1.23;;
50851;SDS011;43953;45.508;-122.806;2023-02-15T00:12:53;3.28;;;1.38;;
50851;SDS011;43953;45.508;-122.806;2023-02-15T00:13:25;2.88;;;1.45;;
50851;SDS011;43953;45.508;-122.806;2023-02-15T00:13:56;2.10;;;1.38;;
50851;SDS011;43953;45.508;-122.806;2023-02-15T00:14:29;3.58;;;1.20;;
50851;SDS011;43953;45.508;-122.806;2023-02-15T00:15:00;2.50;;;1.40;;
50851;SDS011;43953;45.508;-122.806;2023-02-15T00:15:32;3.30;;;1.45;;
50851;SDS011;43953;45.508;-122.806;2023-02-15T00:16:08;2.38;;;1.10;;
50851;SDS011;43953;45.508;-122.806;2023-02-15T00:16:41;2.58;;;1.33;;
50851;SDS011;43953;45.508;-122.806;2023-02-15T00:17:14;4.13;;;1.38;;
50851;SDS011;43953;45.508;-122.806;2023-02-15T00:17:46;3.72;;;1.27;;
50851;SDS011;43953;45.508;-122.806;2023-02-15T00:18:18;2.40;;;1.40;;
50851;SDS011;43953;45.508;-122.806;2023-02-15T00:18:51;4.40;;;1.50;;
50851;SDS011;43953;45.508;-122.806;2023-02-15T00:19:23;3.65;;;1.38;;
50851;SDS011;43953;45.508;-122.806;2023-02-15T00:19:55;2.92;;;1.35;;
50851;SDS011;43953;45.508;-122.806;2023-02-15T00:20:26;4.00;;;1.50;;
50851;SDS011;43953;45.508;-122.806;2023-02-15T00:21:01;1.90;;;1.27;;
50851;SDS011;43953;45.508;-122.806;2023-02-15T00:21:35;3.58;;;1.30;;
50851;SDS011;43953;45.508;-122.806;2023-02-15T00:22:08;3.20;;;1.52;;
50851;SDS011;43953;45.508;-122.806;2023-02-15T00:22:40;3.88;;;1.30;;
50851;SDS011;43953;45.508;-122.806;2023-02-15T00:23:11;2.92;;;1.45;;
50851;SDS011;43953;45.508;-122.806;2023-02-15T00:23:43;2.92;;;1.30;;
50851;SDS011;43953;45.508;-122.806;2023-02-15T00:24:16;3.05;;;1.25;;
50851;SDS011;43953;45.508;-122.806;2023-02-15T00:24:49;2.97;;;1.23;;
50851;SDS011;43953;45.508;-122.806;2023-02-15T00:25:20;3.83;;;1.40;;
50851;SDS011;43953;45.508;-122.806;2023-02-15T00:25:52;2.42;;;1.30;;
50851;SDS011;43953;45.508;-122.806;2023-02-15T00:26:43;2.38;;;1.10;;
50851;SDS011;43953;45.508;-122.806;2023-02-15T00:27:16;2.03;;;1.20;;
50851;SDS011;43953;45.508;-122.806;2023-02-15T00:27:48;3.17;;;1.67;;
50851;SDS011;43953;45.508;-122.806;2023-02-15T00:28:19;3.90;;;1.30;;
50851;SDS011;43953;45.508;-122.806;2023-02-15T00:28:52;3.05;;;1.38;;
50851;SDS011;43953;45.508;-122.806;2023-02-15T00:29:25;2.72;;;1.45;;
50851;SDS011;43953;45.508;-122.806;2023-02-15T00:29:57;2.17;;;1.25;;
50851;SDS011;43953;45.508;-122.806;2023-02-15T00:30:28;1.55;;;1.20;;
50851;SDS011;43953;45.508;-122.806;2023-02-15T00:31:04;2.55;;;1.23;;
50851;SDS011;43953;45.508;-122.806;2023-02-15T00:31:42;2.55;;;1.63;;
50851;SDS011;43953;45.508;-122.806;2023-02-15T00:32:14;2.65;;;1.40;;
50851;SDS011;43953;45.508;-122.806;2023-02-15T00:32:47;4.60;;;1.55;;
50851;SDS011;43953;45.508;-122.806;2023-02-15T00:33:19;2.55;;;1.17;;
50851;SDS011;43953;45.508;-122.806;2023-02-15T00:33:50;3.03;;;1.30;;
50851;SDS011;43953;45.508;-122.806;2023-02-15T00:34:23;4.18;;;1.40;;
50851;SDS011;43953;45.508;-122.806;2023-02-15T00:34:56;1.98;;;1.20;;
50851;SDS011;43953;45.508;-122.806;2023-02-15T00:35:28;1.70;;;1.30;;
50851;SDS011;43953;45.508;-122.806;2023-02-15T00:36:00;4.18;;;1.38;;
50851;SDS011;43953;45.508;-122.806;2023-02-15T00:36:33;4.70;;;1.30;;
50851;SDS011;43953;45.508;-122.806;2023-02-15T00:37:05;3.15;;;1.50;;
50851;SDS011;43953;45.508;-122.806;2023-02-15T00:37:36;1.73;;;1.20;;
50851;SDS011;43953;45.508;-122.806;2023-02-15T00:38:08;2.78;;;1.58;;
50851;SDS011;43953;45.508;-122.806;2023-02-15T00:38:40;2.72;;;1.40;;
50851;SDS011;43953;45.508;-122.806;2023-02-15T00:39:12;3.28;;;1.20;;
50851;SDS011;43953;45.508;-122.806;2023-02-15T00:39:44;3.80;;;1.42;;
50851;SDS011;43953;45.508;-122.806;2023-02-15T00:40:15;3.58;;;1.50;;
50851;SDS011;43953;45.508;-122.806;2023-02-15T00:40:51;2.88;;;1.60;;
50851;SDS011;43953;45.508;-122.806;2023-02-15T00:41:26;2.42;;;1.20;;
50851;SDS011;43953;45.508;-122.806;2023-02-15T00:41:58;3.55;;;1.38;;
50851;SDS011;43953;45.508;-122.806;2023-02-15T00:42:30;2.20;;;1.25;;
50851;SDS011;43953;45.508;-122.806;2023-02-15T00:43:01;5.25;;;2.20;;
50851;SDS011;43953;45.508;-122.806;2023-02-15T00:43:34;3.17;;;1.20;;
50851;SDS011;43953;45.508;-122.806;2023-02-15T00:44:06;2.20;;;1.33;;
50851;SDS011;43953;45.508;-122.806;2023-02-15T00:44:38;2.55;;;1.50;;
50851;SDS011;43953;45.508;-122.806;2023-02-15T00:45:10;2.67;;;1.23;;
50851;SDS011;43953;45.508;-122.806;2023-02-15T00:45:42;3.30;;;1.20;;
50851;SDS011;43953;45.508;-122.806;2023-02-15T00:46:13;2.55;;;1.17;;
50851;SDS011;43953;45.508;-122.806;2023-02-15T00:46:45;2.60;;;1.33;;
50851;SDS011;43953;45.508;-122.806;2023-02-15T00:47:17;2.67;;;1.17;;
50851;SDS011;43953;45.508;-122.806;2023-02-15T00:47:48;2.65;;;1.70;;
50851;SDS011;43953;45.508;-122.806;2023-02-15T00:48:20;3.47;;;1.42;;
50851;SDS011;43953;45.508;-122.806;2023-02-15T00:48:52;3.40;;;1.52;;
50851;SDS011;43953;45.508;-122.806;2023-02-15T00:49:24;3.10;;;1.50;;
50851;SDS011;43953;45.508;-122.806;2023-02-15T00:49:56;5.03;;;1.75;;
50851;SDS011;43953;45.508;-122.806;2023-02-15T00:50:27;3.63;;;1.60;;
50851;SDS011;43953;45.508;-122.806;2023-02-15T00:51:00;3.65;;;1.70;;
50851;SDS011;43953;45.508;-122.806;2023-02-15T00:51:32;4.32;;;1.65;;
50851;SDS011;43953;45.508;-122.806;2023-02-15T00:52:04;3.67;;;1.92;;
50851;SDS011;43953;45.508;-122.806;2023-02-15T00:52:36;4.80;;;2.15;;
50851;SDS011;43953;45.508;-122.806;2023-02-15T00:53:08;3.28;;;2.00;;
50851;SDS011;43953;45.508;-122.806;2023-02-15T00:53:39;3.03;;;2.13;;
50851;SDS011;43953;45.508;-122.806;2023-02-15T00:54:11;2.78;;;1.50;;
50851;SDS011;43953;45.508;-122.806;2023-02-15T00:54:43;4.72;;;1.73;;
50851;SDS011;43953;45.508;-122.806;2023-02-15T00:55:14;2.83;;;1.65;;
50851;SDS011;43953;45.508;-122.806;2023-02-15T00:55:46;3.67;;;1.58;;
50851;SDS011;43953;45.508;-122.806;2023-02-15T00:56:18;3.17;;;1.70;;
50851;SDS011;43953;45.508;-122.806;2023-02-15T00:56:50;3.60;;;1.90;;
50851;SDS011;43953;45.508;-122.806;2023-02-15T00:57:22;5.45;;;1.98;;
50851;SDS011;43953;45.508;-122.806;2023-02-15T00:57:54;4.03;;;2.00;;
50851;SDS011;43953;45.508;-122.806;2023-02-15T00:58:25;3.63;;;1.55;;
50851;SDS011;43953;45.508;-122.806;2023-02-15T00:58:57;4.72;;;1.60;;
50851;SDS011;43953;45.508;-122.806;2023-02-15T00:59:29;3.58;;;1.52;;
50851;SDS011;43953;45.508;-122.806;2023-02-15T01:00:00;2.97;;;1.63;;
50851;SDS011;43953;45.508;-122.806;2023-02-15T01:00:32;4.80;;;1.90;;
50851;SDS011;43953;45.508;-122.806;2023-02-15T01:01:05;3.72;;;2.15;;
50851;SDS011;43953;45.508;-122.806;2023-02-15T01:01:41;3.92;;;1.80;;
50851;SDS011;43953;45.508;-122.806;2023-02-15T01:02:13;3.08;;;1.67;;
50851;SDS011;43953;45.508;-122.806;2023-02-15T01:02:44;4.53;;;1.75;;
50851;SDS011;43953;45.508;-122.806;2023-02-15T01:03:16;4.68;;;1.70;;
50851;SDS011;43953;45.508;-122.806;2023-02-15T01:03:49;3.58;;;1.83;;
50851;SDS011;43953;45.508;-122.806;2023-02-15T01:04:21;3.58;;;1.60;;
50851;SDS011;43953;45.508;-122.806;2023-02-15T01:04:53;2.65;;;1.63;;
50851;SDS011;43953;45.508;-122.806;2023-02-15T01:05:24;4.28;;;1.75;;
50851;SDS011;43953;45.508;-122.806;2023-02-15T01:05:56;4.88;;;1.90;;
50851;SDS011;43953;45.508;-122.806;2023-02-15T01:06:28;3.78;;;2.10;;
50851;SDS011;43953;45.508;-122.806;2023-02-15T01:06:59;5.10;;;2.00;;
50851;SDS011;43953;45.508;-122.806;2023-02-15T01:07:32;4.03;;;2.08;;
50851;SDS011;43953;45.508;-122.806;2023-02-15T01:08:04;4.22;;;1.98;;
50851;SDS011;43953;45.508;-122.806;2023-02-15T01:08:36;3.80;;;1.88;;
50851;SDS011;43953;45.508;-122.806;2023-02-15T01:09:08;3.00;;;1.80;;
50851;SDS011;43953;45.508;-122.806;2023-02-15T01:09:40;3.90;;;2.00;;
50851;SDS011;43953;45.508;-122.806;2023-02-15T01:10:12;3.10;;;1.63;;
50851;SDS011;43953;45.508;-122.806;2023-02-15T01:10:43;3.70;;;1.88;;
50851;SDS011;43953;45.508;-122.806;2023-02-15T01:11:18;2.65;;;2.00;;
50851;SDS011;43953;45.508;-122.806;2023-02-15T01:11:54;2.65;;;2.00;;
50851;SDS011;43953;45.508;-122.806;2023-02-15T01:12:26;2.67;;;1.98;;
50851;SDS011;43953;45.508;-122.806;2023-02-15T01:12:58;2.95;;;2.20;;
50851;SDS011;43953;45.508;-122.806;2023-02-15T01:13:29;6.00;;;2.58;;
50851;SDS011;43953;45.508;-122.806;2023-02-15T01:14:01;3.55;;;2.38;;
50851;SDS011;43953;45.508;-122.806;2023-02-15T01:14:33;3.72;;;2.70;;
50851;SDS011;43953;45.508;-122.806;2023-02-15T01:15:05;3.38;;;3.00;;
50851;SDS011;43953;45.508;-122.806;2023-02-15T01:15:37;4.50;;;2.85;;
50851;SDS011;43953;45.508;-122.806;2023-02-15T01:16:09;5.55;;;3.17;;
50851;SDS011;43953;45.508;-122.806;2023-02-15T01:16:40;4.70;;;3.40;;
50851;SDS011;43953;45.508;-122.806;2023-02-15T01:17:12;4.63;;;3.50;;
50851;SDS011;43953;45.508;-122.806;2023-02-15T01:17:44;6.18;;;3.60;;
50851;SDS011;43953;45.508;-122.806;2023-02-15T01:18:22;4.80;;;3.05;;
50851;SDS011;43953;45.508;-122.806;2023-02-15T01:18:53;6.03;;;3.50;;
50851;SDS011;43953;45.508;-122.806;2023-02-15T01:19:25;5.13;;;3.20;;
50851;SDS011;43953;45.508;-122.806;2023-02-15T01:19:57;4.35;;;3.15;;
50851;SDS011;43953;45.508;-122.806;2023-02-15T01:20:29;4.45;;;2.67;;
50851;SDS011;43953;45.508;-122.806;2023-02-15T01:21:12;4.65;;;2.83;;
50851;SDS011;43953;45.508;-122.806;2023-02-15T01:21:48;5.18;;;2.88;;
50851;SDS011;43953;45.508;-122.806;2023-02-15T01:22:20;4.45;;;2.47;;
50851;SDS011;43953;45.508;-122.806;2023-02-15T01:22:51;3.97;;;2.70;;
50851;SDS011;43953;45.508;-122.806;2023-02-15T01:23:24;4.03;;;2.60;;
50851;SDS011;43953;45.508;-122.806;2023-02-15T01:23:56;5.10;;;2.90;;
50851;SDS011;43953;45.508;-122.806;2023-02-15T01:24:27;3.60;;;2.80;;
50851;SDS011;43953;45.508;-122.806;2023-02-15T01:24:59;3.75;;;2.53;;
50851;SDS011;43953;45.508;-122.806;2023-02-15T01:25:32;4.78;;;2.67;;
50851;SDS011;43953;45.508;-122.806;2023-02-15T01:26:05;4.50;;;2.75;;
50851;SDS011;43953;45.508;-122.806;2023-02-15T01:26:36;3.53;;;2.10;;
50851;SDS011;43953;45.508;-122.806;2023-02-15T01:27:08;4.05;;;2.40;;
50851;SDS011;43953;45.508;-122.806;2023-02-15T01:27:40;7.78;;;3.10;;
50851;SDS011;43953;45.508;-122.806;2023-02-15T01:28:11;3.35;;;2.22;;
50851;SDS011;43953;45.508;-122.806;2023-02-15T01:28:44;6.68;;;2.50;;
50851;SDS011;43953;45.508;-122.806;2023-02-15T01:29:16;3.80;;;2.47;;
50851;SDS011;43953;45.508;-122.806;2023-02-15T01:29:47;3.67;;;2.20;;
50851;SDS011;43953;45.508;-122.806;2023-02-15T01:30:19;4.50;;;2.10;;
50851;SDS011;43953;45.508;-122.806;2023-02-15T01:30:51;5.07;;;2.22;;
50851;SDS011;43953;45.508;-122.806;2023-02-15T01:31:22;2.95;;;1.95;;
50851;SDS011;43953;45.508;-122.806;2023-02-15T01:31:54;3.75;;;2.10;;
50851;SDS011;43953;45.508;-122.806;2023-02-15T01:32:26;2.58;;;2.00;;
50851;SDS011;43953;45.508;-122.806;2023-02-15T01:32:57;4.43;;;2.00;;
50851;SDS011;43953;45.508;-122.806;2023-02-15T01:33:31;4.03;;;2.30;;
50851;SDS011;43953;45.508;-122.806;2023-02-15T01:34:03;4.07;;;2.33;;
50851;SDS011;43953;45.508;-122.806;2023-02-15T01:34:34;4.07;;;2.08;;
50851;SDS011;43953;45.508;-122.806;2023-02-15T01:35:06;4.65;;;1.80;;
50851;SDS011;43953;45.508;-122.806;2023-02-15T01:35:38;4.22;;;2.15;;
50851;SDS011;43953;45.508;-122.806;2023-02-15T01:36:10;3.67;;;1.77;;
50851;SDS011;43953;45.508;-122.806;2023-02-15T01:36:42;5.75;;;2.00;;
50851;SDS011;43953;45.508;-122.806;2023-02-15T01:37:13;3.40;;;1.90;;
50851;SDS011;43953;45.508;-122.806;2023-02-15T01:37:45;4.25;;;2.17;;
50851;SDS011;43953;45.508;-122.806;2023-02-15T01:38:17;2.45;;;1.67;;
50851;SDS011;43953;45.508;-122.806;2023-02-15T01:38:48;3.92;;;2.08;;
50851;SDS011;43953;45.508;-122.806;2023-02-15T01:39:20;3.80;;;2.00;;
50851;SDS011;43953;45.508;-122.806;2023-02-15T01:39:52;3.67;;;1.80;;
50851;SDS011;43953;45.508;-122.806;2023-02-15T01:40:24;4.20;;;1.92;;
50851;SDS011;43953;45.508;-122.806;2023-02-15T01:40:56;4.32;;;2.30;;
50851;SDS011;43953;45.508;-122.806;2023-02-15T01:41:48;3.40;;;1.98;;
50851;SDS011;43953;45.508;-122.806;2023-02-15T01:42:22;4.75;;;2.25;;
50851;SDS011;43953;45.508;-122.806;2023-02-15T01:42:55;3.15;;;2.08;;
50851;SDS011;43953;45.508;-122.806;2023-02-15T01:43:48;3.20;;;1.95;;
50851;SDS011;43953;45.508;-122.806;2023-02-15T01:45:52;3.33;;;1.70;;
50851;SDS011;43953;45.508;-122.806;2023-02-15T01:46:45;3.35;;;1.83;;
50851;SDS011;43953;45.508;-122.806;2023-02-15T01:48:11;5.47;;;2.10;;
50851;SDS011;43953;45.508;-122.806;2023-02-15T01:48:48;3.92;;;2.10;;
50851;SDS011;43953;45.508;-122.806;2023-02-15T01:49:24;4.53;;;2.00;;
50851;SDS011;43953;45.508;-122.806;2023-02-15T01:50:09;4.43;;;2.00;;
50851;SDS011;43953;45.508;-122.806;2023-02-15T01:50:50;3.78;;;1.95;;
50851;SDS011;43953;45.508;-122.806;2023-02-15T01:51:28;3.60;;;2.10;;
50851;SDS011;43953;45.508;-122.806;2023-02-15T01:52:01;3.75;;;2.03;;
50851;SDS011;43953;45.508;-122.806;2023-02-15T01:52:34;4.72;;;2.15;;
50851;SDS011;43953;45.508;-122.806;2023-02-15T01:53:59;2.50;;;1.70;;
50851;SDS011;43953;45.508;-122.806;2023-02-15T01:54:37;4.05;;;2.00;;
50851;SDS011;43953;45.508;-122.806;2023-02-15T01:55:11;3.33;;;1.92;;
50851;SDS011;43953;45.508;-122.806;2023-02-15T01:55:50;3.58;;;2.10;;
50851;SDS011;43953;45.508;-122.806;2023-02-15T01:56:29;3.95;;;1.85;;
50851;SDS011;43953;45.508;-122.806;2023-02-15T01:57:10;4.05;;;1.92;;
50851;SDS011;43953;45.508;-122.806;2023-02-15T01:57:46;3.13;;;1.90;;
50851;SDS011;43953;45.508;-122.806;2023-02-15T01:58:18;3.42;;;1.83;;
50851;SDS011;43953;45.508;-122.806;2023-02-15T01:58:51;5.00;;;1.83;;
50851;SDS011;43953;45.508;-122.806;2023-02-15T01:59:25;4.93;;;1.90;;
50851;SDS011;43953;45.508;-122.806;2023-02-15T01:59:58;3.33;;;2.10;;
50851;SDS011;43953;45.508;-122.806;2023-02-15T02:00:33;4.68;;;2.05;;
50851;SDS011;43953;45.508;-122.806;2023-02-15T02:01:06;2.83;;;1.85;;
50851;SDS011;43953;45.508;-122.806;2023-02-15T02:01:39;4.45;;;2.33;;
50851;SDS011;43953;45.508;-122.806;2023-02-15T02:02:11;3.65;;;2.33;;
50851;SDS011;43953;45.508;-122.806;2023-02-15T02:02:46;4.15;;;2.05;;
50851;SDS011;43953;45.508;-122.806;2023-02-15T02:03:22;4.70;;;2.10;;
50851;SDS011;43953;45.508;-122.806;2023-02-15T02:04:54;5.95;;;2.38;;
50851;SDS011;43953;45.508;-122.806;2023-02-15T02:05:29;4.88;;;2.10;;
50851;SDS011;43953;45.508;-122.806;2023-02-15T02:06:01;4.03;;;2.42;;
50851;SDS011;43953;45.508;-122.806;2023-02-15T02:06:33;4.25;;;2.58;;
50851;SDS011;43953;45.508;-122.806;2023-02-15T02:07:08;5.35;;;2.92;;
50851;SDS011;43953;45.508;-122.806;2023-02-15T02:07:43;5.13;;;2.70;;
50851;SDS011;43953;45.508;-122.806;2023-02-15T02:08:16;3.53;;;2.55;;
50851;SDS011;43953;45.508;-122.806;2023-02-15T02:08:49;5.90;;;3.65;;
50851;SDS011;43953;45.508;-122.806;2023-02-15T02:09:20;5.70;;;4.25;;
50851;SDS011;43953;45.508;-122.806;2023-02-15T02:09:52;5.85;;;3.65;;
50851;SDS011;43953;45.508;-122.806;2023-02-15T02:10:24;6.28;;;3.38;;
50851;SDS011;43953;45.508;-122.806;2023-02-15T02:10:56;5.78;;;3.78;;
50851;SDS011;43953;45.508;-122.806;2023-02-15T02:11:28;5.45;;;3.88;;
50851;SDS011;43953;45.508;-122.806;2023-02-15T02:12:00;5.55;;;3.55;;
50851;SDS011;43953;45.508;-122.806;2023-02-15T02:12:32;5.68;;;3.90;;
50851;SDS011;43953;45.508;-122.806;2023-02-15T02:13:06;4.60;;;3.13;;
50851;SDS011;43953;45.508;-122.806;2023-02-15T02:13:38;6.60;;;3.92;;
50851;SDS011;43953;45.508;-122.806;2023-02-15T02:14:11;4.70;;;4.10;;
50851;SDS011;43953;45.508;-122.806;2023-02-15T02:14:44;6.68;;;3.72;;
50851;SDS011;43953;45.508;-122.806;2023-02-15T02:15:18;3.97;;;2.95;;
50851;SDS011;43953;45.508;-122.806;2023-02-15T02:16:31;3.20;;;2.90;;
50851;SDS011;43953;45.508;-122.806;2023-02-15T02:17:39;6.43;;;3.20;;
50851;SDS011;43953;45.508;-122.806;2023-02-15T02:24:23;3.90;;;2.60;;
50851;SDS011;43953;45.508;-122.806;2023-02-15T02:24:44;3.45;;;2.42;;
50851;SDS011;43953;45.508;-122.806;2023-02-15T02:27:14;5.18;;;2.90;;
50851;SDS011;43953;45.508;-122.806;2023-02-15T02:31:38;4.38;;;2.65;;
50851;SDS011;43953;45.508;-122.806;2023-02-15T02:35:00;4.47;;;2.33;;
50851;SDS011;43953;45.508;-122.806;2023-02-15T02:37:01;5.32;;;2.40;;
50851;SDS011;43953;45.508;-122.806;2023-02-15T02:37:49;4.40;;;2.20;;
50851;SDS011;43953;45.508;-122.806;2023-02-15T02:38:55;3.35;;;2.08;;
50851;SDS011;43953;45.508;-122.806;2023-02-15T02:40:36;5.10;;;2.33;;
50851;SDS011;43953;45.508;-122.806;2023-02-15T02:42:25;4.78;;;2.10;;
50851;SDS011;43953;45.508;-122.806;2023-02-15T02:43:05;4.40;;;2.00;;
50851;SDS011;43953;45.508;-122.806;2023-02-15T02:44:47;3.60;;;1.85;;
50851;SDS011;43953;45.508;-122.806;2023-02-15T02:45:26;4.38;;;2.17;;
50851;SDS011;43953;45.508;-122.806;2023-02-15T02:46:07;5.55;;;2.00;;
50851;SDS011;43953;45.508;-122.806;2023-02-15T02:48:22;4.90;;;2.25;;
50851;SDS011;43953;45.508;-122.806;2023-02-15T02:48:57;4.10;;;2.22;;
50851;SDS011;43953;45.508;-122.806;2023-02-15T02:49:33;3.75;;;2.20;;
50851;SDS011;43953;45.508;-122.806;2023-02-15T02:50:14;7.63;;;2.50;;
50851;SDS011;43953;45.508;-122.806;2023-02-15T02:50:48;3.78;;;2.20;;
50851;SDS011;43953;45.508;-122.806;2023-02-15T02:51:20;5.45;;;2.33;;
50851;SDS011;43953;45.508;-122.806;2023-02-15T02:51:57;5.53;;;2.47;;
50851;SDS011;43953;45.508;-122.806;2023-02-15T02:52:40;5.05;;;2.88;;
50851;SDS011;43953;45.508;-122.806;2023-02-15T02:53:17;4.22;;;2.50;;
50851;SDS011;43953;45.508;-122.806;2023-02-15T02:53:50;6.93;;;2.83;;
50851;SDS011;43953;45.508;-122.806;2023-02-15T02:54:27;5.53;;;3.20;;
50851;SDS011;43953;45.508;-122.806;2023-02-15T02:55:01;7.53;;;3.83;;
50851;SDS011;43953;45.508;-122.806;2023-02-15T02:56:15;13.02;;;5.57;;
50851;SDS011;43953;45.508;-122.806;2023-02-15T02:57:00;9.30;;;5.78;;
50851;SDS011;43953;45.508;-122.806;2023-02-15T02:57:35;10.70;;;5.75;;
50851;SDS011;43953;45.508;-122.806;2023-02-15T02:58:22;9.25;;;5.03;;
50851;SDS011;43953;45.508;-122.806;2023-02-15T02:59:19;12.00;;;6.65;;
50851;SDS011;43953;45.508;-122.806;2023-02-15T02:59:57;12.45;;;6.70;;
50851;SDS011;43953;45.508;-122.806;2023-02-15T03:00:37;11.10;;;6.22;;
50851;SDS011;43953;45.508;-122.806;2023-02-15T03:01:20;12.90;;;7.07;;
50851;SDS011;43953;45.508;-122.806;2023-02-15T03:01:58;11.35;;;6.50;;
50851;SDS011;43953;45.508;-122.806;2023-02-15T03:02:43;10.35;;;6.70;;
50851;SDS011;43953;45.508;-122.806;2023-02-15T03:03:20;11.75;;;6.22;;
50851;SDS011;43953;45.508;-122.806;2023-02-15T03:04:07;13.32;;;7.25;;
50851;SDS011;43953;45.508;-122.806;2023-02-15T03:04:45;12.68;;;6.75;;
50851;SDS011;43953;45.508;-122.806;2023-02-15T03:05:28;11.18;;;6.32;;
50851;SDS011;43953;45.508;-122.806;2023-02-15T03:06:03;11.73;;;7.20;;
50851;SDS011;43953;45.508;-122.806;2023-02-15T03:07:26;11.60;;;6.57;;
50851;SDS011;43953;45.508;-122.806;2023-02-15T03:07:59;11.55;;;6.30;;
50851;SDS011;43953;45.508;-122.806;2023-02-15T03:08:38;12.85;;;6.25;;
50851;SDS011;43953;45.508;-122.806;2023-02-15T03:09:35;10.75;;;6.50;;
50851;SDS011;43953;45.508;-122.806;2023-02-15T03:10:15;10.02;;;5.40;;
50851;SDS011;43953;45.508;-122.806;2023-02-15T03:10:51;9.70;;;5.78;;
50851;SDS011;43953;45.508;-122.806;2023-02-15T03:11:26;11.57;;;5.43;;
50851;SDS011;43953;45.508;-122.806;2023-02-15T03:11:58;10.23;;;5.07;;
50851;SDS011;43953;45.508;-122.806;2023-02-15T03:12:39;8.07;;;4.80;;
50851;SDS011;43953;45.508;-122.806;2023-02-15T03:13:11;9.10;;;4.95;;
50851;SDS011;43953;45.508;-122.806;2023-02-15T03:13:44;7.22;;;4.38;;
50851;SDS011;43953;45.508;-122.806;2023-02-15T03:14:18;7.70;;;4.20;;
50851;SDS011;43953;45.508;-122.806;2023-02-15T03:14:55;9.38;;;4.68;;
50851;SDS011;43953;45.508;-122.806;2023-02-15T03:16:23;7.88;;;4.38;;
50851;SDS011;43953;45.508;-122.806;2023-02-15T03:16:56;8.93;;;4.97;;
50851;SDS011;43953;45.508;-122.806;2023-02-15T03:17:30;7.65;;;4.68;;
50851;SDS011;43953;45.508;-122.806;2023-02-15T03:18:04;6.93;;;4.00;;
50851;SDS011;43953;45.508;-122.806;2023-02-15T03:18:38;7.80;;;4.10;;
50851;SDS011;43953;45.508;-122.806;2023-02-15T03:19:22;8.25;;;4.15;;
50851;SDS011;43953;45.508;-122.806;2023-02-15T03:20:01;5.72;;;3.72;;
50851;SDS011;43953;45.508;-122.806;2023-02-15T03:20:38;6.68;;;4.00;;
50851;SDS011;43953;45.508;-122.806;2023-02-15T03:21:09;6.57;;;4.10;;
50851;SDS011;43953;45.508;-122.806;2023-02-15T03:21:56;5.63;;;3.85;;
50851;SDS011;43953;45.508;-122.806;2023-02-15T03:22:41;5.80;;;3.70;;
50851;SDS011;43953;45.508;-122.806;2023-02-15T03:23:21;9.48;;;4.22;;
50851;SDS011;43953;45.508;-122.806;2023-02-15T03:24:17;7.93;;;3.83;;
50851;SDS011;43953;45.508;-122.806;2023-02-15T03:26:10;6.70;;;3.22;;
50851;SDS011;43953;45.508;-122.806;2023-02-15T03:26:43;7.22;;;3.63;;
50851;SDS011;43953;45.508;-122.806;2023-02-15T03:27:22;8.57;;;3.65;;
50851;SDS011;43953;45.508;-122.806;2023-02-15T03:28:04;5.40;;;3.30;;
50851;SDS011;43953;45.508;-122.806;2023-02-15T03:28:41;4.95;;;2.80;;
50851;SDS011;43953;45.508;-122.806;2023-02-15T03:29:17;5.45;;;3.28;;
50851;SDS011;43953;45.508;-122.806;2023-02-15T03:29:52;6.88;;;3.10;;
50851;SDS011;43953;45.508;-122.806;2023-02-15T03:30:27;5.15;;;2.92;;
50851;SDS011;43953;45.508;-122.806;2023-02-15T03:31:01;5.15;;;2.70;;
50851;SDS011;43953;45.508;-122.806;2023-02-15T03:31:37;5.00;;;2.80;;
50851;SDS011;43953;45.508;-122.806;2023-02-15T03:32:11;4.97;;;2.95;;
50851;SDS011;43953;45.508;-122.806;2023-02-15T03:32:46;4.78;;;2.72;;
50851;SDS011;43953;45.508;-122.806;2023-02-15T03:33:20;4.43;;;2.83;;
50851;SDS011;43953;45.508;-122.806;2023-02-15T03:34:04;5.30;;;2.50;;
50851;SDS011;43953;45.508;-122.806;2023-02-15T03:34:41;4.88;;;2.80;;
50851;SDS011;43953;45.508;-122.806;2023-02-15T03:35:14;7.07;;;2.50;;
50851;SDS011;43953;45.508;-122.806;2023-02-15T03:35:50;4.80;;;2.83;;
50851;SDS011;43953;45.508;-122.806;2023-02-15T03:36:49;5.05;;;2.80;;
50851;SDS011;43953;45.508;-122.806;2023-02-15T03:37:37;5.40;;;2.63;;
50851;SDS011;43953;45.508;-122.806;2023-02-15T03:38:14;4.93;;;2.80;;
50851;SDS011;43953;45.508;-122.806;2023-02-15T03:41:00;4.75;;;2.65;;
50851;SDS011;43953;45.508;-122.806;2023-02-15T03:41:52;3.47;;;2.20;;
50851;SDS011;43953;45.508;-122.806;2023-02-15T03:42:26;4.68;;;2.58;;
50851;SDS011;43953;45.508;-122.806;2023-02-15T03:44:14;4.13;;;2.45;;
50851;SDS011;43953;45.508;-122.806;2023-02-15T03:45:05;4.13;;;2.20;;
50851;SDS011;43953;45.508;-122.806;2023-02-15T03:45:44;3.78;;;2.00;;
50851;SDS011;43953;45.508;-122.806;2023-02-15T03:47:23;2.85;;;2.00;;
50851;SDS011;43953;45.508;-122.806;2023-02-15T03:48:07;3.22;;;2.05;;
50851;SDS011;43953;45.508;-122.806;2023-02-15T03:48:40;3.70;;;2.10;;
50851;SDS011;43953;45.508;-122.806;2023-02-15T03:49:41;5.00;;;1.92;;
50851;SDS011;43953;45.508;-122.806;2023-02-15T03:50:20;5.25;;;2.53;;
50851;SDS011;43953;45.508;-122.806;2023-02-15T03:51:15;4.43;;;2.13;;
50851;SDS011;43953;45.508;-122.806;2023-02-15T03:52:05;3.20;;;2.22;;
50851;SDS011;43953;45.508;-122.806;2023-02-15T03:52:40;4.10;;;2.20;;
50851;SDS011;43953;45.508;-122.806;2023-02-15T03:53:13;8.77;;;2.40;;
50851;SDS011;43953;45.508;-122.806;2023-02-15T03:53:48;3.92;;;2.10;;
50851;SDS011;43953;45.508;-122.806;2023-02-15T03:54:26;3.17;;;2.00;;
50851;SDS011;43953;45.508;-122.806;2023-02-15T03:55:17;4.80;;;2.08;;
50851;SDS011;43953;45.508;-122.806;2023-02-15T03:55:49;2.78;;;1.98;;